createdAt,value
2019-04-05T00:00:00.386Z,80.27
2019-04-05T00:02:31.763Z,78.96
2019-04-05T00:05:03.383Z,79.45
2019-04-05T00:07:35.286Z,78.33
2019-04-05T00:10:08.333Z,79.29
2019-04-05T00:12:40.494Z,79.05
2019-04-05T00:15:15.469Z,78.96
2019-04-05T00:17:45.836Z,78.28
2019-04-05T00:20:17.847Z,79.06
2019-04-05T00:22:49.884Z,79.03
2019-04-05T00:25:21.706Z,79.50
2019-04-05T00:27:53.510Z,79.74
2019-04-05T00:30:25.326Z,79.72
2019-04-05T00:32:57.264Z,79.42
2019-04-05T00:35:28.684Z,78.96
2019-04-05T00:38:00.433Z,79.33
2019-04-05T00:40:32.446Z,79.91
2019-04-05T00:43:04.151Z,78.14
2019-04-05T00:45:35.523Z,78.44
2019-04-05T00:48:08.131Z,79.57
2019-04-05T00:50:39.511Z,78.61
2019-04-05T00:53:42.307Z,78.87
2019-04-05T00:56:28.772Z,79.09
2019-04-05T00:59:03.788Z,78.52
2019-04-05T01:01:51.427Z,79.24
2019-04-05T01:04:51.118Z,79.38
2019-04-05T01:07:46.271Z,78.82
2019-04-05T01:11:02.984Z,77.61
2019-04-05T02:13:09.745Z,80.20
2019-04-05T02:15:42.498Z,79.24
2019-04-05T02:18:13.819Z,82.13
2019-04-05T02:20:45.610Z,80.38
2019-04-05T02:23:16.818Z,79.45
2019-04-05T02:25:48.167Z,79.62
2019-04-05T02:28:19.495Z,80.20
2019-04-05T02:30:51.490Z,80.74
2019-04-05T02:33:23.114Z,81.56
2019-04-05T02:35:54.519Z,80.17
2019-04-05T02:38:26.165Z,79.91
2019-04-05T02:41:01.480Z,79.91
2019-04-05T02:43:35.821Z,80.84
2019-04-05T02:46:22.820Z,79.80
2019-04-05T02:48:46.138Z,79.54
2019-04-05T02:51:22.526Z,80.35
2019-04-05T02:53:56.055Z,80.40
2019-04-05T02:56:31.546Z,80.24
2019-04-05T02:59:05.186Z,81.02
2019-04-05T03:01:37.381Z,81.02
2019-04-05T03:04:09.386Z,79.03
2019-04-05T03:06:42.165Z,80.27
2019-04-05T03:09:14.690Z,80.23
2019-04-05T03:11:46.594Z,79.57
2019-04-05T03:14:18.848Z,79.69
2019-04-05T03:16:54.563Z,79.37
2019-04-05T03:19:32.291Z,79.56
2019-04-05T03:22:10.667Z,79.34
2019-04-05T03:24:46.376Z,79.38
2019-04-05T03:27:24.722Z,79.41
2019-04-05T03:29:56.634Z,79.66
2019-04-05T03:32:29.752Z,79.31
2019-04-05T03:35:01.236Z,79.49
2019-04-05T03:37:32.761Z,78.90
2019-04-05T03:40:04.605Z,79.34
2019-04-05T03:42:36.605Z,79.69
2019-04-05T03:45:08.236Z,78.89
2019-04-05T03:47:39.610Z,78.86
2019-04-05T03:50:11.118Z,79.91
2019-04-05T03:52:42.831Z,79.83
2019-04-05T03:55:14.223Z,79.28
2019-04-05T03:57:45.618Z,79.55
2019-04-05T04:00:17.088Z,79.29
2019-04-05T04:02:48.407Z,79.21
2019-04-05T04:05:19.787Z,79.38
2019-04-05T04:07:51.358Z,79.47
2019-04-05T04:10:25.548Z,79.80
2019-04-05T04:12:57.331Z,79.30
2019-04-05T04:15:30.543Z,78.62
2019-04-05T04:18:01.982Z,78.36
2019-04-05T04:20:42.650Z,79.42
2019-04-05T04:23:15.659Z,79.42
2019-04-05T04:25:48.121Z,79.91
2019-04-05T04:28:20.210Z,80.26
2019-04-05T04:31:07.388Z,79.86
2019-04-05T04:33:52.147Z,79.33
2019-04-05T04:36:40.986Z,79.04
2019-04-05T04:39:13.047Z,79.50
2019-04-05T04:41:49.673Z,79.41
2019-04-05T04:44:29.729Z,79.63
2019-04-05T04:47:07.427Z,78.79
2019-04-05T04:49:43.623Z,79.34
2019-04-05T04:52:23.158Z,79.05
2019-04-05T04:54:54.781Z,79.29
2019-04-05T04:57:26.191Z,78.12
2019-04-05T04:59:57.649Z,79.43
2019-04-05T05:02:32.255Z,80.32
2019-04-05T05:05:04.227Z,79.62
2019-04-05T05:07:36.523Z,80.52
2019-04-05T05:10:09.138Z,78.09
2019-04-05T05:12:40.753Z,79.26
2019-04-05T05:15:13.747Z,79.36
2019-04-05T05:17:57.727Z,79.58
2019-04-05T05:20:19.835Z,79.05
2019-04-05T05:22:51.677Z,79.31
2019-04-05T05:25:24.003Z,80.00
2019-04-05T05:27:55.816Z,79.68
2019-04-05T05:30:29.178Z,79.11
2019-04-05T05:33:00.688Z,79.38
2019-04-05T05:35:33.301Z,79.05
2019-04-05T05:38:05.606Z,78.97
2019-04-05T05:40:37.375Z,79.74
2019-04-05T05:43:09.237Z,79.62
2019-04-05T05:45:41.691Z,80.94
2019-04-05T05:48:13.794Z,80.38
2019-04-05T05:50:45.637Z,78.24
2019-04-05T05:53:17.088Z,80.05
2019-04-05T05:55:48.511Z,81.12
2019-04-05T05:58:20.170Z,77.37
2019-04-05T06:00:51.520Z,78.47
2019-04-05T06:03:23.179Z,79.99
2019-04-05T06:08:29.267Z,77.95
2019-04-05T06:11:00.800Z,78.73
2019-04-05T06:13:32.883Z,78.34
2019-04-05T06:16:04.197Z,78.95
2019-04-05T06:18:35.768Z,78.38
2019-04-05T06:21:07.603Z,79.49
2019-04-05T06:23:41.732Z,79.12
2019-04-05T06:26:12.497Z,79.81
2019-04-05T06:28:44.551Z,79.63
2019-04-05T06:31:16.064Z,79.36
2019-04-05T06:33:47.399Z,80.08
2019-04-05T06:36:19.388Z,79.33
2019-04-05T06:38:51.541Z,79.54
2019-04-05T06:41:22.909Z,79.01
2019-04-05T06:43:55.304Z,80.54
2019-04-05T06:46:26.748Z,79.24
2019-04-05T06:48:58.134Z,77.45
2019-04-05T06:51:29.442Z,78.75
2019-04-05T06:54:03.390Z,78.93
2019-04-05T06:56:34.555Z,78.76
2019-04-05T06:59:06.195Z,80.26
2019-04-05T07:01:37.927Z,77.73
2019-04-05T07:04:09.584Z,78.92
2019-04-05T07:06:41.289Z,79.02
2019-04-05T07:09:13.392Z,79.44
2019-04-05T07:11:44.899Z,79.42
2019-04-05T07:14:17.071Z,79.41
2019-04-05T07:16:49.110Z,79.48
2019-04-05T07:19:20.758Z,79.41
2019-04-05T07:21:53.018Z,78.64
2019-04-05T07:24:24.404Z,77.94
2019-04-05T07:26:55.706Z,78.02
2019-04-05T07:29:27.027Z,76.00
2019-04-05T07:31:59.037Z,78.21
2019-04-05T07:34:31.567Z,77.93
2019-04-05T07:37:02.919Z,77.81
2019-04-05T07:39:34.709Z,77.68
2019-04-05T07:42:06.104Z,77.68
2019-04-05T07:44:37.400Z,76.42
2019-04-05T07:47:10.194Z,78.14
2019-04-05T07:49:41.488Z,78.69
2019-04-05T07:52:13.185Z,77.77
2019-04-05T07:54:44.621Z,78.28
2019-04-05T07:57:15.915Z,77.92
2019-04-05T07:59:47.952Z,78.32
2019-04-05T08:02:20.624Z,77.68
2019-04-05T08:04:54.744Z,77.74
2019-04-05T08:07:32.151Z,77.78
2019-04-05T08:10:04.709Z,77.34
2019-04-05T08:12:37.044Z,77.90
2019-04-05T08:15:09.277Z,76.96
2019-04-05T08:17:40.942Z,77.87
2019-04-05T08:20:12.341Z,77.67
2019-04-05T08:22:44.423Z,77.45
2019-04-05T08:25:16.494Z,77.98
2019-04-05T08:27:48.303Z,78.41
2019-04-05T08:30:20.266Z,77.11
2019-04-05T08:32:52.371Z,78.22
2019-04-05T08:35:24.030Z,77.46
2019-04-05T08:37:55.751Z,76.95
2019-04-05T08:40:27.480Z,76.90
2019-04-05T08:42:58.975Z,76.40
2019-04-05T08:45:30.749Z,77.48
2019-04-05T08:48:02.458Z,77.81
2019-04-05T08:50:33.768Z,77.32
2019-04-05T08:53:05.163Z,76.89
2019-04-05T08:55:36.597Z,77.50
2019-04-05T08:58:08.551Z,77.51
2019-04-05T09:00:40.264Z,76.58
2019-04-05T09:03:12.450Z,76.75
2019-04-05T09:05:44.104Z,77.72
2019-04-05T09:08:16.156Z,76.60
2019-04-05T09:10:48.323Z,76.06
2019-04-05T09:13:20.369Z,76.89
2019-04-05T09:15:51.740Z,75.82
2019-04-05T09:18:23.180Z,75.24
2019-04-05T09:20:54.473Z,75.80
2019-04-05T09:23:26.284Z,76.04
2019-04-05T09:25:57.690Z,74.83
2019-04-05T09:28:29.384Z,74.75
2019-04-05T09:31:01.151Z,75.04
2019-04-05T09:33:32.889Z,75.35
2019-04-05T09:36:04.571Z,75.74
2019-04-05T09:38:36.319Z,75.04
2019-04-05T09:41:08.523Z,74.52
2019-04-05T09:43:40.260Z,76.82
2019-04-05T09:46:12.045Z,75.99
2019-04-05T09:48:43.602Z,73.74
2019-04-05T09:51:15.312Z,74.76
2019-04-05T09:53:46.678Z,74.13
2019-04-05T09:56:18.036Z,73.39
2019-04-05T09:58:51.200Z,74.31
2019-04-05T10:01:22.569Z,73.54
2019-04-05T10:03:54.228Z,74.33
2019-04-05T10:06:26.583Z,74.70
2019-04-05T10:08:58.201Z,73.37
2019-04-05T10:11:29.743Z,74.87
2019-04-05T10:14:01.124Z,72.88
2019-04-05T10:16:34.139Z,73.55
2019-04-05T10:19:05.916Z,73.55
2019-04-05T10:21:37.642Z,74.15
2019-04-05T10:24:09.142Z,73.50
2019-04-05T10:26:40.939Z,72.41
2019-04-05T10:29:12.262Z,72.16
2019-04-05T10:31:44.247Z,72.10
2019-04-05T10:34:16.048Z,73.62
2019-04-05T10:36:47.958Z,72.62
2019-04-05T10:39:20.016Z,72.97
2019-04-05T10:42:02.729Z,72.54
2019-04-05T10:44:25.217Z,72.10
2019-04-05T10:46:57.037Z,72.85
2019-04-05T10:49:28.773Z,73.59
2019-04-05T10:52:00.084Z,74.07
2019-04-05T10:54:32.558Z,72.76
2019-04-05T10:57:04.692Z,72.83
2019-04-05T10:59:38.515Z,71.03
2019-04-05T11:02:09.436Z,73.24
2019-04-05T11:04:40.722Z,71.96
2019-04-05T11:07:12.006Z,72.73
2019-04-05T11:09:43.438Z,72.96
2019-04-05T11:12:15.031Z,73.67
2019-04-05T11:14:46.631Z,72.05
2019-04-05T11:17:18.461Z,72.33
2019-04-05T11:19:50.877Z,72.34
2019-04-05T11:22:22.309Z,71.26
2019-04-05T11:24:54.362Z,71.17
2019-04-05T11:27:25.730Z,71.81
2019-04-05T11:29:57.978Z,71.59
2019-04-05T11:32:29.821Z,73.52
2019-04-05T11:35:01.343Z,72.59
2019-04-05T11:37:33.335Z,71.80
2019-04-05T11:40:06.219Z,71.60
2019-04-05T11:42:41.694Z,73.50
2019-04-05T11:45:13.629Z,71.05
2019-04-05T11:47:46.107Z,70.24
2019-04-05T11:50:17.940Z,72.44
2019-04-05T11:52:49.221Z,72.81
2019-04-05T11:55:20.629Z,72.25
2019-04-05T11:57:54.709Z,74.78
2019-04-05T12:00:32.907Z,74.22
2019-04-05T12:03:09.719Z,74.62
2019-04-05T12:05:40.903Z,76.64
2019-04-05T12:08:12.512Z,72.99
2019-04-05T12:10:44.204Z,74.87
2019-04-05T12:13:16.089Z,74.65
2019-04-05T12:15:47.430Z,71.89
2019-04-05T12:18:19.664Z,73.10
2019-04-05T12:20:59.629Z,72.10
2019-04-05T12:23:24.544Z,72.98
2019-04-05T12:25:55.848Z,75.04
2019-04-05T12:28:27.296Z,74.34
2019-04-05T12:30:58.662Z,70.99
2019-04-05T12:33:29.968Z,72.60
2019-04-05T12:36:01.667Z,74.10
2019-04-05T12:38:33.456Z,71.46
2019-04-05T12:41:10.701Z,71.38
2019-04-05T12:43:43.973Z,69.87
2019-04-05T12:46:15.906Z,71.36
2019-04-05T12:48:46.593Z,69.78
2019-04-05T12:51:18.300Z,69.96
2019-04-05T12:53:50.027Z,68.94
2019-04-05T12:56:22.408Z,68.16
2019-04-05T12:58:57.477Z,69.90
2019-04-05T13:01:28.781Z,70.81
2019-04-05T13:04:00.122Z,68.39
2019-04-05T13:06:32.236Z,68.20
2019-04-05T13:09:06.162Z,67.03
2019-04-05T13:11:37.660Z,66.88
2019-04-05T13:14:09.046Z,67.19
2019-04-05T13:16:40.928Z,67.14
2019-04-05T13:19:15.271Z,67.35
2019-04-05T13:21:47.489Z,68.46
2019-04-05T13:24:18.957Z,67.32
2019-04-05T13:26:50.598Z,66.29
2019-04-05T13:29:21.966Z,66.85
2019-04-05T13:31:53.647Z,68.29
2019-04-05T13:34:26.034Z,66.26
2019-04-05T13:36:59.299Z,66.36
2019-04-05T13:39:31.531Z,67.96
2019-04-05T13:42:03.360Z,66.74
2019-04-05T13:44:35.476Z,66.43
2019-04-05T13:47:08.478Z,66.40
2019-04-05T13:49:40.762Z,66.46
2019-04-05T13:52:13.190Z,66.76
2019-04-05T13:54:44.512Z,66.75
2019-04-05T13:57:15.894Z,66.54
2019-04-05T13:59:47.173Z,66.48
2019-04-05T14:02:21.152Z,68.19
2019-04-05T14:04:54.905Z,67.20
2019-04-05T14:07:26.793Z,66.68
2019-04-05T14:09:58.260Z,66.32
2019-04-05T14:12:31.273Z,67.09
2019-04-05T14:15:02.976Z,66.73
2019-04-05T14:17:35.010Z,66.77
2019-04-05T14:20:09.479Z,69.34
2019-04-05T14:22:41.277Z,69.37
2019-04-05T14:25:13.164Z,71.32
2019-04-05T14:27:45.228Z,69.64
2019-04-05T14:30:17.183Z,69.31
2019-04-05T14:32:51.091Z,70.44
2019-04-05T14:35:24.374Z,70.45
2019-04-05T14:37:56.362Z,69.54
2019-04-05T14:40:28.932Z,70.52
2019-04-05T14:43:02.804Z,70.68
2019-04-05T14:45:34.159Z,68.67
2019-04-05T14:48:06.812Z,68.84
2019-04-05T14:50:38.621Z,69.47
2019-04-05T14:53:10.181Z,68.32
2019-04-05T14:55:42.847Z,67.79
2019-04-05T14:58:15.857Z,68.00
2019-04-05T15:00:54.000Z,70.75
2019-04-05T15:03:25.553Z,69.70
2019-04-05T15:05:56.962Z,68.45
2019-04-05T15:08:28.619Z,68.95
2019-04-05T15:11:00.642Z,68.52
2019-04-05T15:13:32.351Z,69.17
2019-04-05T15:16:04.871Z,67.42
2019-04-05T15:18:36.710Z,68.08
2019-04-05T15:21:08.286Z,67.70
2019-04-05T15:23:41.463Z,68.17
2019-04-05T15:26:14.622Z,70.82
2019-04-05T15:28:47.814Z,72.68
2019-04-05T15:31:19.541Z,73.00
2019-04-05T15:33:51.650Z,72.87
2019-04-05T15:36:23.787Z,71.65
2019-04-05T15:38:55.678Z,72.44
2019-04-05T15:41:27.042Z,72.13
2019-04-05T15:43:58.417Z,72.17
2019-04-05T15:46:29.899Z,72.79
2019-04-05T15:49:01.260Z,72.11
2019-04-05T15:51:33.044Z,72.58
2019-04-05T15:54:05.290Z,73.33
2019-04-05T15:56:36.656Z,73.50
2019-04-05T15:59:08.823Z,74.22
2019-04-05T16:01:40.321Z,75.38
2019-04-05T16:04:12.130Z,74.02
2019-04-05T16:06:43.524Z,74.67
2019-04-05T16:09:18.288Z,74.29
2019-04-05T16:11:49.608Z,75.17
2019-04-05T16:14:21.243Z,74.79
2019-04-05T16:16:53.771Z,75.30
2019-04-05T16:19:25.225Z,74.08
2019-04-05T16:21:56.671Z,75.00
2019-04-05T16:24:29.345Z,74.90
2019-04-05T16:27:01.150Z,74.67
2019-04-05T16:29:33.285Z,74.92
2019-04-05T16:32:04.673Z,74.85
2019-04-05T16:34:36.105Z,73.92
2019-04-05T16:37:08.334Z,74.57
2019-04-05T16:39:39.832Z,74.72
2019-04-05T16:42:11.215Z,74.43
2019-04-05T16:44:43.030Z,74.77
2019-04-05T16:47:14.361Z,74.82
2019-04-05T16:49:46.198Z,75.02
2019-04-05T16:52:17.530Z,75.34
2019-04-05T16:54:48.945Z,75.01
2019-04-05T16:57:20.678Z,75.01
2019-04-05T16:59:52.606Z,73.65
2019-04-05T17:02:23.995Z,74.68
2019-04-05T17:04:55.457Z,74.14
2019-04-05T17:07:27.725Z,74.37
2019-04-05T17:09:59.415Z,75.21
2019-04-05T17:12:31.753Z,75.38
2019-04-05T17:15:03.235Z,75.44
2019-04-05T17:17:34.667Z,76.13
2019-04-05T17:20:07.373Z,76.32
2019-04-05T17:22:40.566Z,75.97
2019-04-05T17:25:13.182Z,74.64
2019-04-05T17:27:45.034Z,74.04
2019-04-05T17:30:17.109Z,74.04
2019-04-05T17:32:49.181Z,75.17
2019-04-05T17:35:21.093Z,74.74
2019-04-05T17:37:52.781Z,74.75
2019-04-05T17:40:24.098Z,75.53
2019-04-05T17:42:56.286Z,74.70
2019-04-05T17:45:27.750Z,76.41
2019-04-05T17:47:59.103Z,76.41
2019-04-05T17:50:35.827Z,75.74
2019-04-05T17:53:12.818Z,75.84
2019-04-05T17:55:41.568Z,76.68
2019-04-05T17:58:13.392Z,76.52
2019-04-05T18:00:45.303Z,76.40
2019-04-05T18:03:18.240Z,76.21
2019-04-05T18:05:50.147Z,76.32
2019-04-05T18:08:22.751Z,76.75
2019-04-05T18:10:54.265Z,76.75
2019-04-05T18:13:27.301Z,77.66
2019-04-05T18:15:59.498Z,76.81
2019-04-05T18:18:30.802Z,77.25
2019-04-05T18:21:02.211Z,77.24
2019-04-05T18:23:34.481Z,77.91
2019-04-05T18:26:06.445Z,77.88
2019-04-05T18:28:38.289Z,77.72
2019-04-05T18:31:09.818Z,77.43
2019-04-05T18:33:41.542Z,77.29
2019-04-05T18:36:13.713Z,76.87
2019-04-05T18:38:45.132Z,77.95
2019-04-05T18:41:16.743Z,78.34
2019-04-05T18:43:48.563Z,77.90
2019-04-05T18:46:20.695Z,77.05
2019-04-05T18:48:52.435Z,78.38
2019-04-05T18:51:24.155Z,77.65
2019-04-05T18:53:56.303Z,78.50
2019-04-05T18:56:27.774Z,77.76
2019-04-05T18:59:01.972Z,78.26
2019-04-05T19:01:33.759Z,78.11
2019-04-05T19:04:05.644Z,78.41
2019-04-05T19:06:37.961Z,75.32
2019-04-05T19:09:11.905Z,77.80
2019-04-05T19:11:43.390Z,78.16
2019-04-05T19:14:14.739Z,78.60
2019-04-05T19:16:46.531Z,77.40
2019-04-05T19:19:18.541Z,74.47
2019-04-05T19:21:49.949Z,74.09
2019-04-05T19:24:22.184Z,73.80
2019-04-05T19:26:53.607Z,73.07
2019-04-05T19:29:26.598Z,73.36
2019-04-05T19:49:52.476Z,75.57
2019-04-05T19:52:24.395Z,73.96
2019-04-05T19:54:56.518Z,75.64
2019-04-05T19:57:28.061Z,75.29
2019-04-05T19:59:59.793Z,76.48
2019-04-05T20:02:31.503Z,75.65
2019-04-05T20:05:03.021Z,75.10
2019-04-05T20:07:35.909Z,74.73
2019-04-05T20:10:07.964Z,77.90
2019-04-05T20:12:39.721Z,77.47
2019-04-05T20:15:12.099Z,77.97
2019-04-05T20:17:44.045Z,78.73
2019-04-05T20:20:15.664Z,78.12
2019-04-05T20:22:47.482Z,79.09
2019-04-05T20:25:19.092Z,77.51
2019-04-05T20:27:50.667Z,77.72
2019-04-05T20:30:22.064Z,77.45
2019-04-05T20:32:54.030Z,77.31
2019-04-05T20:35:26.645Z,78.23
2019-04-05T20:37:58.498Z,77.29
2019-04-05T20:40:30.016Z,78.09
2019-04-05T20:43:01.958Z,78.16
2019-04-05T20:45:33.540Z,77.88
2019-04-05T20:48:05.067Z,77.42
2019-04-05T20:50:36.888Z,77.37
2019-04-05T20:53:08.498Z,78.06
2019-04-05T20:55:39.928Z,78.51
2019-04-05T20:58:11.821Z,79.19
2019-04-05T21:00:43.610Z,79.83
2019-04-05T21:03:15.032Z,79.97
2019-04-05T21:05:46.969Z,79.83
2019-04-05T21:08:18.384Z,79.57
2019-04-05T21:10:49.991Z,78.35
2019-04-05T21:13:21.674Z,79.39
2019-04-05T21:15:53.948Z,78.67
2019-04-05T21:18:25.871Z,79.88
2019-04-05T21:20:57.399Z,79.24
2019-04-05T21:23:28.767Z,79.84
2019-04-05T21:26:00.287Z,80.81
2019-04-05T21:28:32.483Z,79.68
2019-04-05T21:31:05.004Z,79.69
2019-04-05T21:33:36.766Z,79.65
2019-04-05T21:36:08.130Z,78.23
2019-04-05T21:38:39.667Z,78.47
2019-04-05T21:41:13.282Z,79.39
2019-04-05T21:43:44.709Z,79.88
2019-04-05T21:46:16.076Z,81.40
2019-04-05T21:48:50.036Z,79.00
2019-04-05T21:51:21.386Z,79.45
2019-04-05T21:53:53.482Z,82.83
2019-04-05T21:56:25.188Z,81.47
2019-04-05T21:58:58.626Z,82.76
2019-04-05T22:01:31.173Z,82.70
2019-04-05T22:04:02.874Z,81.91
2019-04-05T22:06:34.747Z,82.68
2019-04-05T22:09:09.859Z,82.25
2019-04-05T22:11:41.828Z,81.48
2019-04-05T22:14:14.074Z,82.26
2019-04-05T22:16:45.678Z,81.98
2019-04-05T22:19:17.500Z,78.72
2019-04-05T22:21:49.374Z,79.29
2019-04-05T22:24:20.944Z,79.72
2019-04-05T22:26:53.219Z,79.50
2019-04-05T22:29:25.533Z,80.38
2019-04-05T22:31:57.362Z,82.33
2019-04-05T22:34:28.926Z,81.29
2019-04-05T22:37:00.364Z,80.98
2019-04-05T22:39:32.033Z,80.43
2019-04-05T22:42:03.832Z,80.17
2019-04-05T22:44:39.943Z,81.00
2019-04-05T22:47:09.146Z,79.41
2019-04-05T22:49:40.536Z,79.57
2019-04-05T22:52:12.869Z,79.21
2019-04-05T22:54:44.257Z,78.74
2019-04-05T22:57:15.713Z,79.59
2019-04-05T22:59:47.298Z,79.92
2019-04-05T23:02:18.728Z,79.92
2019-04-05T23:04:50.251Z,82.15
2019-04-05T23:07:22.304Z,82.90
2019-04-05T23:09:53.787Z,84.43
2019-04-05T23:12:25.270Z,83.21
2019-04-05T23:14:57.947Z,83.26
2019-04-05T23:17:29.898Z,83.00
2019-04-05T23:20:02.827Z,81.59
2019-04-05T23:22:34.255Z,81.21
2019-04-05T23:25:05.727Z,83.44
2019-04-05T23:27:37.673Z,82.73
2019-04-05T23:30:10.388Z,83.60
2019-04-05T23:32:42.158Z,81.75
2019-04-05T23:35:14.823Z,80.77
2019-04-05T23:37:46.945Z,80.78
2019-04-05T23:40:19.477Z,80.58
2019-04-05T23:42:50.876Z,81.19
2019-04-05T23:45:22.686Z,81.43
2019-04-05T23:47:54.264Z,79.70
2019-04-05T23:50:26.728Z,81.74
2019-04-05T23:52:58.708Z,81.92
2019-04-05T23:55:33.462Z,82.94
2019-04-05T23:58:03.548Z,81.89
